Startpagina
METAR-TAF:

METAR-TAF

Vliegvelden :

Nörvenich, Duitsland

breedte: 50-50N, lengte: 006-40E, hoogte: 118 m

Actueel weer

Dit bericht is 32 minuten geleden gemaakt, om 16:20 UTC
Wind 8 kt uit het oostnoordoosten
Temperatuur 3°C
Vochtigheid 44%
Druk 1020 hPa
Zicht 10 km of meer
Weinig wolken op 5000 ft

METAR: ETNN 221620Z 07008KT 9999 FEW050 03/M08 Q1020 BLU+FCST CANCEL

Tijdstip: 17:52 (16:52 UTC)

Verwachting

Dit bericht is 27 minuten geleden gemaakt, om 16:25 UTC
Verwachting geldig van 22 om 16 UTC tot 22 om 24 UTC
Wind 10 kt uit het oostnoordoosten met uitschieters tot 20 kt
Zicht 10 km of meer
Weinig wolken op 4000 ft

TAF: ETNN 221625Z 2216/2224 07010G20KT 9999 NSW FEW040 CANCEL BY ETGL

Waarnemingen en weersverwachtingen van meer dan 4000 vliegvelden (METAR en TAF).

De beschikbare stations zijn de gele en rode punten op de kaart.

Ga met uw muis naar het station om de naam te zien.

Klik dan om waarnemingen en weersverwachtingen te zien.

kaart wijzigen: klik op de groene knoppen met een zwart kruis om in te zoomen, op de groene knop met een streepje om uit te zoomen of op de groene pijlen voor aangrenzende kaarten.


METAR-TAF: